sensor_id;sensor_type;location;lat;lon;timestamp;P1;durP1;ratioP1;P2;durP2;ratioP2
5077;SDS011;2557;51.390;7.494;2023-02-11T00:00:51;50.13;;;26.37;;
5077;SDS011;2557;51.390;7.494;2023-02-11T00:03:17;51.70;;;24.90;;
5077;SDS011;2557;51.390;7.494;2023-02-11T00:05:43;46.97;;;26.70;;
5077;SDS011;2557;51.390;7.494;2023-02-11T00:08:09;42.77;;;26.97;;
5077;SDS011;2557;51.390;7.494;2023-02-11T00:10:40;46.57;;;27.07;;
5077;SDS011;2557;51.390;7.494;2023-02-11T00:13:06;45.50;;;25.90;;
5077;SDS011;2557;51.390;7.494;2023-02-11T00:15:32;44.90;;;26.23;;
5077;SDS011;2557;51.390;7.494;2023-02-11T00:17:58;44.87;;;26.67;;
5077;SDS011;2557;51.390;7.494;2023-02-11T00:20:24;61.67;;;26.53;;
5077;SDS011;2557;51.390;7.494;2023-02-11T00:22:50;48.33;;;26.47;;
5077;SDS011;2557;51.390;7.494;2023-02-11T00:25:16;45.70;;;24.60;;
5077;SDS011;2557;51.390;7.494;2023-02-11T00:27:42;44.00;;;24.90;;
5077;SDS011;2557;51.390;7.494;2023-02-11T00:30:09;45.60;;;25.40;;
5077;SDS011;2557;51.390;7.494;2023-02-11T00:32:35;43.43;;;24.80;;
5077;SDS011;2557;51.390;7.494;2023-02-11T00:35:02;52.33;;;25.57;;
5077;SDS011;2557;51.390;7.494;2023-02-11T00:37:28;48.73;;;27.90;;
5077;SDS011;2557;51.390;7.494;2023-02-11T00:39:53;41.47;;;24.53;;
5077;SDS011;2557;51.390;7.494;2023-02-11T00:42:19;51.42;;;26.15;;
5077;SDS011;2557;51.390;7.494;2023-02-11T00:44:45;50.50;;;26.30;;
5077;SDS011;2557;51.390;7.494;2023-02-11T00:47:11;45.93;;;26.70;;
5077;SDS011;2557;51.390;7.494;2023-02-11T00:49:37;41.00;;;24.63;;
5077;SDS011;2557;51.390;7.494;2023-02-11T00:52:04;50.95;;;27.85;;
5077;SDS011;2557;51.390;7.494;2023-02-11T00:54:30;48.08;;;26.55;;
5077;SDS011;2557;51.390;7.494;2023-02-11T00:56:56;43.65;;;24.75;;
5077;SDS011;2557;51.390;7.494;2023-02-11T00:59:22;43.00;;;24.03;;
5077;SDS011;2557;51.390;7.494;2023-02-11T01:01:48;39.13;;;24.20;;
5077;SDS011;2557;51.390;7.494;2023-02-11T01:04:14;51.10;;;25.90;;
5077;SDS011;2557;51.390;7.494;2023-02-11T01:06:40;43.77;;;22.20;;
5077;SDS011;2557;51.390;7.494;2023-02-11T01:09:06;40.87;;;25.33;;
5077;SDS011;2557;51.390;7.494;2023-02-11T01:11:32;44.00;;;25.83;;
5077;SDS011;2557;51.390;7.494;2023-02-11T01:13:58;44.60;;;26.17;;
5077;SDS011;2557;51.390;7.494;2023-02-11T01:16:24;37.70;;;23.70;;
5077;SDS011;2557;51.390;7.494;2023-02-11T01:18:50;41.43;;;23.17;;
5077;SDS011;2557;51.390;7.494;2023-02-11T01:21:16;40.87;;;22.90;;
5077;SDS011;2557;51.390;7.494;2023-02-11T01:23:42;43.88;;;24.90;;
5077;SDS011;2557;51.390;7.494;2023-02-11T01:26:08;42.63;;;23.90;;
5077;SDS011;2557;51.390;7.494;2023-02-11T01:28:34;48.77;;;24.10;;
5077;SDS011;2557;51.390;7.494;2023-02-11T01:31:00;44.03;;;23.17;;
5077;SDS011;2557;51.390;7.494;2023-02-11T01:33:26;39.77;;;22.97;;
5077;SDS011;2557;51.390;7.494;2023-02-11T01:35:52;37.70;;;21.03;;
5077;SDS011;2557;51.390;7.494;2023-02-11T01:38:20;37.00;;;20.97;;
5077;SDS011;2557;51.390;7.494;2023-02-11T01:40:47;36.40;;;22.20;;
5077;SDS011;2557;51.390;7.494;2023-02-11T01:43:13;40.23;;;21.90;;
5077;SDS011;2557;51.390;7.494;2023-02-11T01:48:15;37.50;;;21.77;;
5077;SDS011;2557;51.390;7.494;2023-02-11T01:50:42;40.00;;;21.70;;
5077;SDS011;2557;51.390;7.494;2023-02-11T01:53:11;39.33;;;22.03;;
5077;SDS011;2557;51.390;7.494;2023-02-11T01:55:56;43.27;;;22.97;;
5077;SDS011;2557;51.390;7.494;2023-02-11T01:58:41;39.67;;;21.80;;
5077;SDS011;2557;51.390;7.494;2023-02-11T02:01:08;43.03;;;21.50;;
5077;SDS011;2557;51.390;7.494;2023-02-11T02:03:36;41.63;;;22.30;;
5077;SDS011;2557;51.390;7.494;2023-02-11T02:06:12;39.80;;;22.90;;
5077;SDS011;2557;51.390;7.494;2023-02-11T02:08:43;42.73;;;23.80;;
5077;SDS011;2557;51.390;7.494;2023-02-11T02:11:11;37.10;;;22.57;;
5077;SDS011;2557;51.390;7.494;2023-02-11T02:13:37;39.93;;;22.03;;
5077;SDS011;2557;51.390;7.494;2023-02-11T02:18:33;38.40;;;21.13;;
5077;SDS011;2557;51.390;7.494;2023-02-11T02:26:04;38.87;;;25.63;;
5077;SDS011;2557;51.390;7.494;2023-02-11T02:33:42;41.72;;;23.92;;
5077;SDS011;2557;51.390;7.494;2023-02-11T02:36:17;42.67;;;25.27;;
5077;SDS011;2557;51.390;7.494;2023-02-11T02:41:20;42.37;;;24.70;;
5077;SDS011;2557;51.390;7.494;2023-02-11T02:43:47;48.67;;;23.40;;
5077;SDS011;2557;51.390;7.494;2023-02-11T02:46:15;35.90;;;22.07;;
5077;SDS011;2557;51.390;7.494;2023-02-11T02:48:42;42.10;;;23.33;;
5077;SDS011;2557;51.390;7.494;2023-02-11T02:51:14;42.00;;;24.10;;
5077;SDS011;2557;51.390;7.494;2023-02-11T02:53:49;44.73;;;24.47;;
5077;SDS011;2557;51.390;7.494;2023-02-11T02:56:25;39.70;;;24.30;;
5077;SDS011;2557;51.390;7.494;2023-02-11T02:59:03;39.40;;;23.93;;
5077;SDS011;2557;51.390;7.494;2023-02-11T03:01:39;37.93;;;22.97;;
5077;SDS011;2557;51.390;7.494;2023-02-11T03:04:10;41.40;;;23.50;;
5077;SDS011;2557;51.390;7.494;2023-02-11T03:06:45;39.10;;;24.13;;
5077;SDS011;2557;51.390;7.494;2023-02-11T03:09:15;47.67;;;23.80;;
5077;SDS011;2557;51.390;7.494;2023-02-11T03:11:42;56.17;;;23.50;;
5077;SDS011;2557;51.390;7.494;2023-02-11T03:14:09;43.97;;;24.27;;
5077;SDS011;2557;51.390;7.494;2023-02-11T03:16:35;41.67;;;25.50;;
5077;SDS011;2557;51.390;7.494;2023-02-11T03:19:10;39.27;;;22.70;;
5077;SDS011;2557;51.390;7.494;2023-02-11T03:21:37;45.47;;;25.35;;
5077;SDS011;2557;51.390;7.494;2023-02-11T03:24:06;39.17;;;23.03;;
5077;SDS011;2557;51.390;7.494;2023-02-11T03:26:35;38.97;;;23.17;;
5077;SDS011;2557;51.390;7.494;2023-02-11T03:29:09;37.20;;;21.70;;
5077;SDS011;2557;51.390;7.494;2023-02-11T03:31:50;41.20;;;23.27;;
5077;SDS011;2557;51.390;7.494;2023-02-11T03:34:20;44.33;;;24.07;;
5077;SDS011;2557;51.390;7.494;2023-02-11T03:36:50;41.23;;;24.47;;
5077;SDS011;2557;51.390;7.494;2023-02-11T03:39:18;40.73;;;24.17;;
5077;SDS011;2557;51.390;7.494;2023-02-11T03:41:46;47.23;;;26.17;;
5077;SDS011;2557;51.390;7.494;2023-02-11T03:44:14;36.77;;;22.40;;
5077;SDS011;2557;51.390;7.494;2023-02-11T03:46:41;49.23;;;25.07;;
5077;SDS011;2557;51.390;7.494;2023-02-11T03:49:10;39.50;;;25.50;;
5077;SDS011;2557;51.390;7.494;2023-02-11T03:51:38;50.73;;;27.17;;
5077;SDS011;2557;51.390;7.494;2023-02-11T03:54:05;42.97;;;24.17;;
5077;SDS011;2557;51.390;7.494;2023-02-11T03:56:37;41.40;;;26.83;;
5077;SDS011;2557;51.390;7.494;2023-02-11T03:59:04;38.37;;;23.87;;
5077;SDS011;2557;51.390;7.494;2023-02-11T04:01:30;43.87;;;25.40;;
5077;SDS011;2557;51.390;7.494;2023-02-11T04:03:56;42.00;;;25.40;;
5077;SDS011;2557;51.390;7.494;2023-02-11T04:06:22;50.33;;;27.40;;
5077;SDS011;2557;51.390;7.494;2023-02-11T04:08:48;40.17;;;24.50;;
5077;SDS011;2557;51.390;7.494;2023-02-11T04:11:14;47.23;;;26.70;;
5077;SDS011;2557;51.390;7.494;2023-02-11T04:13:40;41.20;;;25.57;;
5077;SDS011;2557;51.390;7.494;2023-02-11T04:16:06;42.20;;;26.10;;
5077;SDS011;2557;51.390;7.494;2023-02-11T04:18:32;45.53;;;27.00;;
5077;SDS011;2557;51.390;7.494;2023-02-11T04:20:58;42.57;;;25.80;;
5077;SDS011;2557;51.390;7.494;2023-02-11T04:23:24;42.77;;;25.60;;
5077;SDS011;2557;51.390;7.494;2023-02-11T04:25:50;45.23;;;26.30;;
5077;SDS011;2557;51.390;7.494;2023-02-11T04:28:16;49.03;;;26.13;;
5077;SDS011;2557;51.390;7.494;2023-02-11T04:30:42;47.17;;;25.67;;
5077;SDS011;2557;51.390;7.494;2023-02-11T04:33:08;44.40;;;27.27;;
5077;SDS011;2557;51.390;7.494;2023-02-11T04:35:34;46.00;;;24.97;;
5077;SDS011;2557;51.390;7.494;2023-02-11T04:38:00;43.10;;;26.70;;
5077;SDS011;2557;51.390;7.494;2023-02-11T04:40:26;53.63;;;26.40;;
5077;SDS011;2557;51.390;7.494;2023-02-11T04:42:52;57.70;;;26.80;;
5077;SDS011;2557;51.390;7.494;2023-02-11T04:45:18;61.33;;;27.90;;
5077;SDS011;2557;51.390;7.494;2023-02-11T04:47:44;47.37;;;27.83;;
5077;SDS011;2557;51.390;7.494;2023-02-11T04:50:10;50.83;;;27.10;;
5077;SDS011;2557;51.390;7.494;2023-02-11T04:52:36;46.27;;;26.00;;
5077;SDS011;2557;51.390;7.494;2023-02-11T04:55:02;53.10;;;27.90;;
5077;SDS011;2557;51.390;7.494;2023-02-11T04:57:28;56.53;;;26.87;;
5077;SDS011;2557;51.390;7.494;2023-02-11T04:59:54;56.63;;;28.83;;
5077;SDS011;2557;51.390;7.494;2023-02-11T05:02:20;51.83;;;29.37;;
5077;SDS011;2557;51.390;7.494;2023-02-11T05:04:46;59.07;;;29.50;;
5077;SDS011;2557;51.390;7.494;2023-02-11T05:07:12;51.33;;;28.33;;
5077;SDS011;2557;51.390;7.494;2023-02-11T05:09:38;59.37;;;32.47;;
5077;SDS011;2557;51.390;7.494;2023-02-11T05:12:04;57.40;;;31.80;;
5077;SDS011;2557;51.390;7.494;2023-02-11T05:14:30;53.58;;;30.13;;
5077;SDS011;2557;51.390;7.494;2023-02-11T05:16:56;60.22;;;28.05;;
5077;SDS011;2557;51.390;7.494;2023-02-11T05:19:22;49.40;;;28.93;;
5077;SDS011;2557;51.390;7.494;2023-02-11T05:21:48;58.67;;;29.73;;
5077;SDS011;2557;51.390;7.494;2023-02-11T05:24:14;53.47;;;29.05;;
5077;SDS011;2557;51.390;7.494;2023-02-11T05:26:40;47.67;;;26.23;;
5077;SDS011;2557;51.390;7.494;2023-02-11T05:29:06;57.60;;;28.20;;
5077;SDS011;2557;51.390;7.494;2023-02-11T05:31:32;51.93;;;27.73;;
5077;SDS011;2557;51.390;7.494;2023-02-11T05:33:58;48.60;;;28.00;;
5077;SDS011;2557;51.390;7.494;2023-02-11T05:36:24;52.37;;;27.00;;
5077;SDS011;2557;51.390;7.494;2023-02-11T05:38:50;52.43;;;27.80;;
5077;SDS011;2557;51.390;7.494;2023-02-11T05:41:16;48.70;;;27.40;;
5077;SDS011;2557;51.390;7.494;2023-02-11T05:43:42;55.00;;;29.40;;
5077;SDS011;2557;51.390;7.494;2023-02-11T05:46:08;47.60;;;27.10;;
5077;SDS011;2557;51.390;7.494;2023-02-11T05:48:34;59.00;;;30.00;;
5077;SDS011;2557;51.390;7.494;2023-02-11T05:51:00;51.00;;;28.90;;
5077;SDS011;2557;51.390;7.494;2023-02-11T05:53:26;48.90;;;28.77;;
5077;SDS011;2557;51.390;7.494;2023-02-11T05:55:52;52.00;;;28.60;;
5077;SDS011;2557;51.390;7.494;2023-02-11T05:58:18;43.93;;;26.10;;
5077;SDS011;2557;51.390;7.494;2023-02-11T06:00:44;47.93;;;24.90;;
5077;SDS011;2557;51.390;7.494;2023-02-11T06:03:10;56.60;;;29.47;;
5077;SDS011;2557;51.390;7.494;2023-02-11T06:05:36;55.13;;;27.80;;
5077;SDS011;2557;51.390;7.494;2023-02-11T06:08:02;44.30;;;26.63;;
5077;SDS011;2557;51.390;7.494;2023-02-11T06:10:28;46.30;;;27.27;;
5077;SDS011;2557;51.390;7.494;2023-02-11T06:12:54;51.53;;;27.40;;
5077;SDS011;2557;51.390;7.494;2023-02-11T06:15:20;42.10;;;27.00;;
5077;SDS011;2557;51.390;7.494;2023-02-11T06:17:46;38.87;;;24.80;;
5077;SDS011;2557;51.390;7.494;2023-02-11T06:20:12;53.80;;;27.63;;
5077;SDS011;2557;51.390;7.494;2023-02-11T06:22:38;50.43;;;26.37;;
5077;SDS011;2557;51.390;7.494;2023-02-11T06:25:04;48.30;;;26.90;;
5077;SDS011;2557;51.390;7.494;2023-02-11T06:27:30;47.67;;;25.77;;
5077;SDS011;2557;51.390;7.494;2023-02-11T06:29:56;50.80;;;26.67;;
5077;SDS011;2557;51.390;7.494;2023-02-11T06:32:22;50.77;;;28.63;;
5077;SDS011;2557;51.390;7.494;2023-02-11T06:34:48;41.07;;;24.90;;
5077;SDS011;2557;51.390;7.494;2023-02-11T06:37:14;53.60;;;27.07;;
5077;SDS011;2557;51.390;7.494;2023-02-11T06:39:40;45.13;;;26.67;;
5077;SDS011;2557;51.390;7.494;2023-02-11T06:42:06;54.07;;;27.20;;
5077;SDS011;2557;51.390;7.494;2023-02-11T06:44:32;51.77;;;28.30;;
5077;SDS011;2557;51.390;7.494;2023-02-11T06:46:58;45.07;;;26.57;;
5077;SDS011;2557;51.390;7.494;2023-02-11T06:49:24;44.77;;;25.20;;
5077;SDS011;2557;51.390;7.494;2023-02-11T06:51:50;54.03;;;26.30;;
5077;SDS011;2557;51.390;7.494;2023-02-11T06:54:16;46.40;;;26.77;;
5077;SDS011;2557;51.390;7.494;2023-02-11T06:56:42;46.90;;;26.50;;
5077;SDS011;2557;51.390;7.494;2023-02-11T06:59:08;44.67;;;26.13;;
5077;SDS011;2557;51.390;7.494;2023-02-11T07:01:37;48.13;;;27.10;;
5077;SDS011;2557;51.390;7.494;2023-02-11T07:04:03;44.43;;;25.43;;
5077;SDS011;2557;51.390;7.494;2023-02-11T07:06:29;44.73;;;26.10;;
5077;SDS011;2557;51.390;7.494;2023-02-11T07:08:55;41.97;;;24.50;;
5077;SDS011;2557;51.390;7.494;2023-02-11T07:11:23;41.53;;;24.40;;
5077;SDS011;2557;51.390;7.494;2023-02-11T07:13:49;50.27;;;25.13;;
5077;SDS011;2557;51.390;7.494;2023-02-11T07:16:16;41.27;;;26.17;;
5077;SDS011;2557;51.390;7.494;2023-02-11T07:18:43;46.42;;;27.48;;
5077;SDS011;2557;51.390;7.494;2023-02-11T07:21:11;47.20;;;25.37;;
5077;SDS011;2557;51.390;7.494;2023-02-11T07:23:37;47.10;;;24.77;;
5077;SDS011;2557;51.390;7.494;2023-02-11T07:26:05;37.07;;;23.73;;
5077;SDS011;2557;51.390;7.494;2023-02-11T07:28:32;47.10;;;25.30;;
5077;SDS011;2557;51.390;7.494;2023-02-11T07:30:58;39.77;;;24.53;;
5077;SDS011;2557;51.390;7.494;2023-02-11T07:33:24;42.37;;;24.63;;
5077;SDS011;2557;51.390;7.494;2023-02-11T07:35:50;47.80;;;25.07;;
5077;SDS011;2557;51.390;7.494;2023-02-11T07:38:16;39.57;;;24.27;;
5077;SDS011;2557;51.390;7.494;2023-02-11T07:40:42;47.30;;;26.47;;
5077;SDS011;2557;51.390;7.494;2023-02-11T07:43:08;49.80;;;24.87;;
5077;SDS011;2557;51.390;7.494;2023-02-11T07:45:37;48.40;;;24.27;;
5077;SDS011;2557;51.390;7.494;2023-02-11T07:48:03;45.37;;;26.00;;
5077;SDS011;2557;51.390;7.494;2023-02-11T07:50:29;46.40;;;25.23;;
5077;SDS011;2557;51.390;7.494;2023-02-11T07:52:55;47.63;;;26.40;;
5077;SDS011;2557;51.390;7.494;2023-02-11T07:55:21;48.20;;;27.83;;
5077;SDS011;2557;51.390;7.494;2023-02-11T07:57:47;43.20;;;24.90;;
5077;SDS011;2557;51.390;7.494;2023-02-11T08:00:13;49.97;;;26.83;;
5077;SDS011;2557;51.390;7.494;2023-02-11T08:02:39;48.47;;;25.53;;
5077;SDS011;2557;51.390;7.494;2023-02-11T08:05:05;48.53;;;25.37;;
5077;SDS011;2557;51.390;7.494;2023-02-11T08:07:31;60.33;;;27.37;;
5077;SDS011;2557;51.390;7.494;2023-02-11T08:09:57;52.30;;;27.63;;
5077;SDS011;2557;51.390;7.494;2023-02-11T08:12:23;51.07;;;28.10;;
5077;SDS011;2557;51.390;7.494;2023-02-11T08:14:49;52.37;;;27.77;;
5077;SDS011;2557;51.390;7.494;2023-02-11T08:17:15;55.27;;;26.17;;
5077;SDS011;2557;51.390;7.494;2023-02-11T08:19:41;53.80;;;28.20;;
5077;SDS011;2557;51.390;7.494;2023-02-11T08:22:07;61.63;;;29.37;;
5077;SDS011;2557;51.390;7.494;2023-02-11T08:24:33;57.33;;;28.97;;
5077;SDS011;2557;51.390;7.494;2023-02-11T08:26:59;63.80;;;30.03;;
5077;SDS011;2557;51.390;7.494;2023-02-11T08:29:25;61.70;;;29.97;;
5077;SDS011;2557;51.390;7.494;2023-02-11T08:31:51;62.40;;;29.40;;
5077;SDS011;2557;51.390;7.494;2023-02-11T08:34:17;59.00;;;29.00;;
5077;SDS011;2557;51.390;7.494;2023-02-11T08:36:44;63.00;;;28.77;;
5077;SDS011;2557;51.390;7.494;2023-02-11T08:39:12;57.63;;;29.70;;
5077;SDS011;2557;51.390;7.494;2023-02-11T08:41:38;67.53;;;30.13;;
5077;SDS011;2557;51.390;7.494;2023-02-11T08:44:04;79.40;;;32.33;;
5077;SDS011;2557;51.390;7.494;2023-02-11T08:46:30;68.90;;;31.20;;
5077;SDS011;2557;51.390;7.494;2023-02-11T08:48:56;63.07;;;31.17;;
5077;SDS011;2557;51.390;7.494;2023-02-11T08:51:24;68.20;;;33.70;;
5077;SDS011;2557;51.390;7.494;2023-02-11T08:53:51;80.57;;;31.90;;
5077;SDS011;2557;51.390;7.494;2023-02-11T08:56:18;77.93;;;36.23;;
5077;SDS011;2557;51.390;7.494;2023-02-11T08:58:44;76.27;;;35.53;;
5077;SDS011;2557;51.390;7.494;2023-02-11T09:01:11;68.37;;;34.50;;
5077;SDS011;2557;51.390;7.494;2023-02-11T09:03:37;70.87;;;34.37;;
5077;SDS011;2557;51.390;7.494;2023-02-11T09:06:04;78.77;;;33.50;;
5077;SDS011;2557;51.390;7.494;2023-02-11T09:08:33;75.40;;;34.73;;
5077;SDS011;2557;51.390;7.494;2023-02-11T09:10:59;71.93;;;33.07;;
5077;SDS011;2557;51.390;7.494;2023-02-11T09:13:25;65.83;;;32.93;;
5077;SDS011;2557;51.390;7.494;2023-02-11T09:15:51;84.43;;;34.33;;
5077;SDS011;2557;51.390;7.494;2023-02-11T09:18:17;77.97;;;34.33;;
5077;SDS011;2557;51.390;7.494;2023-02-11T09:20:43;66.33;;;34.03;;
5077;SDS011;2557;51.390;7.494;2023-02-11T09:23:09;76.57;;;33.97;;
5077;SDS011;2557;51.390;7.494;2023-02-11T09:25:38;75.80;;;33.00;;
5077;SDS011;2557;51.390;7.494;2023-02-11T09:28:04;71.57;;;34.97;;
5077;SDS011;2557;51.390;7.494;2023-02-11T09:30:30;70.93;;;34.30;;
5077;SDS011;2557;51.390;7.494;2023-02-11T09:32:56;73.73;;;33.27;;
5077;SDS011;2557;51.390;7.494;2023-02-11T09:35:22;69.80;;;33.80;;
5077;SDS011;2557;51.390;7.494;2023-02-11T09:37:48;80.67;;;35.13;;
5077;SDS011;2557;51.390;7.494;2023-02-11T09:40:14;76.03;;;33.77;;
5077;SDS011;2557;51.390;7.494;2023-02-11T09:42:56;80.83;;;34.67;;
5077;SDS011;2557;51.390;7.494;2023-02-11T09:45:27;71.87;;;32.40;;
5077;SDS011;2557;51.390;7.494;2023-02-11T09:47:58;89.37;;;35.90;;
5077;SDS011;2557;51.390;7.494;2023-02-11T09:50:29;84.67;;;35.67;;
5077;SDS011;2557;51.390;7.494;2023-02-11T09:55:22;82.27;;;35.70;;
5077;SDS011;2557;51.390;7.494;2023-02-11T09:57:49;80.80;;;36.10;;
5077;SDS011;2557;51.390;7.494;2023-02-11T10:00:38;72.57;;;34.37;;
5077;SDS011;2557;51.390;7.494;2023-02-11T10:05:41;77.70;;;34.10;;
5077;SDS011;2557;51.390;7.494;2023-02-11T10:08:18;72.93;;;33.80;;
5077;SDS011;2557;51.390;7.494;2023-02-11T10:21:06;74.53;;;35.57;;
5077;SDS011;2557;51.390;7.494;2023-02-11T10:23:35;78.33;;;34.33;;
5077;SDS011;2557;51.390;7.494;2023-02-11T10:26:07;69.97;;;35.50;;
5077;SDS011;2557;51.390;7.494;2023-02-11T10:28:36;71.80;;;36.10;;
5077;SDS011;2557;51.390;7.494;2023-02-11T10:31:10;77.23;;;34.50;;
5077;SDS011;2557;51.390;7.494;2023-02-11T10:33:46;70.00;;;35.20;;
5077;SDS011;2557;51.390;7.494;2023-02-11T10:36:15;76.30;;;35.80;;
5077;SDS011;2557;51.390;7.494;2023-02-11T10:38:41;84.10;;;35.73;;
5077;SDS011;2557;51.390;7.494;2023-02-11T10:41:09;85.23;;;36.07;;
5077;SDS011;2557;51.390;7.494;2023-02-11T10:43:35;81.27;;;34.10;;
5077;SDS011;2557;51.390;7.494;2023-02-11T10:46:02;79.67;;;34.07;;
5077;SDS011;2557;51.390;7.494;2023-02-11T10:51:15;83.07;;;34.50;;
5077;SDS011;2557;51.390;7.494;2023-02-11T10:53:41;77.50;;;36.60;;
5077;SDS011;2557;51.390;7.494;2023-02-11T10:56:09;68.10;;;33.00;;
5077;SDS011;2557;51.390;7.494;2023-02-11T10:58:39;79.23;;;36.53;;
5077;SDS011;2557;51.390;7.494;2023-02-11T11:01:06;83.13;;;36.30;;
5077;SDS011;2557;51.390;7.494;2023-02-11T11:03:51;80.27;;;33.90;;
5077;SDS011;2557;51.390;7.494;2023-02-11T11:06:26;74.63;;;33.43;;
5077;SDS011;2557;51.390;7.494;2023-02-11T11:08:53;85.17;;;36.40;;
5077;SDS011;2557;51.390;7.494;2023-02-11T11:11:20;72.47;;;34.97;;
5077;SDS011;2557;51.390;7.494;2023-02-11T11:18:50;82.20;;;34.90;;
5077;SDS011;2557;51.390;7.494;2023-02-11T11:21:20;98.60;;;35.87;;
5077;SDS011;2557;51.390;7.494;2023-02-11T11:23:57;84.00;;;36.67;;
5077;SDS011;2557;51.390;7.494;2023-02-11T11:26:27;80.13;;;35.33;;
5077;SDS011;2557;51.390;7.494;2023-02-11T11:29:13;77.37;;;35.70;;
5077;SDS011;2557;51.390;7.494;2023-02-11T11:31:53;70.87;;;32.83;;
5077;SDS011;2557;51.390;7.494;2023-02-11T11:34:35;70.50;;;34.40;;
5077;SDS011;2557;51.390;7.494;2023-02-11T11:37:09;72.20;;;33.77;;
5077;SDS011;2557;51.390;7.494;2023-02-11T11:39:36;68.20;;;34.83;;
5077;SDS011;2557;51.390;7.494;2023-02-11T11:42:03;72.47;;;34.80;;
5077;SDS011;2557;51.390;7.494;2023-02-11T11:44:35;80.80;;;35.43;;
5077;SDS011;2557;51.390;7.494;2023-02-11T11:50:14;75.87;;;35.80;;
5077;SDS011;2557;51.390;7.494;2023-02-11T11:52:39;72.07;;;34.33;;
5077;SDS011;2557;51.390;7.494;2023-02-11T11:55:19;77.00;;;33.70;;
5077;SDS011;2557;51.390;7.494;2023-02-11T11:57:46;66.63;;;32.97;;
5077;SDS011;2557;51.390;7.494;2023-02-11T12:00:13;77.77;;;33.43;;
5077;SDS011;2557;51.390;7.494;2023-02-11T12:03:00;80.17;;;35.60;;
5077;SDS011;2557;51.390;7.494;2023-02-11T12:08:04;74.43;;;33.83;;
5077;SDS011;2557;51.390;7.494;2023-02-11T12:13:18;79.60;;;34.33;;
5077;SDS011;2557;51.390;7.494;2023-02-11T12:15:54;74.63;;;34.00;;
5077;SDS011;2557;51.390;7.494;2023-02-11T12:18:24;81.63;;;35.73;;
5077;SDS011;2557;51.390;7.494;2023-02-11T12:21:04;71.80;;;33.10;;
5077;SDS011;2557;51.390;7.494;2023-02-11T12:26:22;82.37;;;35.40;;
5077;SDS011;2557;51.390;7.494;2023-02-11T12:31:27;71.00;;;35.43;;
5077;SDS011;2557;51.390;7.494;2023-02-11T12:36:43;78.63;;;37.70;;
5077;SDS011;2557;51.390;7.494;2023-02-11T12:50:10;88.13;;;41.70;;
5077;SDS011;2557;51.390;7.494;2023-02-11T12:52:42;84.53;;;35.87;;
5077;SDS011;2557;51.390;7.494;2023-02-11T12:55:15;98.33;;;41.40;;
5077;SDS011;2557;51.390;7.494;2023-02-11T12:57:44;82.43;;;38.00;;
5077;SDS011;2557;51.390;7.494;2023-02-11T13:03:00;91.13;;;40.57;;
5077;SDS011;2557;51.390;7.494;2023-02-11T13:05:33;107.90;;;41.10;;
5077;SDS011;2557;51.390;7.494;2023-02-11T13:08:16;97.77;;;43.33;;
5077;SDS011;2557;51.390;7.494;2023-02-11T13:10:49;85.77;;;39.40;;
5077;SDS011;2557;51.390;7.494;2023-02-11T13:15:54;92.40;;;42.37;;
5077;SDS011;2557;51.390;7.494;2023-02-11T13:23:42;93.03;;;42.77;;
5077;SDS011;2557;51.390;7.494;2023-02-11T13:26:20;97.03;;;42.63;;
5077;SDS011;2557;51.390;7.494;2023-02-11T13:31:32;91.97;;;40.10;;
5077;SDS011;2557;51.390;7.494;2023-02-11T13:33:58;103.47;;;43.33;;
5077;SDS011;2557;51.390;7.494;2023-02-11T13:36:25;91.83;;;42.80;;
5077;SDS011;2557;51.390;7.494;2023-02-11T13:38:53;106.43;;;45.97;;
5077;SDS011;2557;51.390;7.494;2023-02-11T13:41:27;92.37;;;43.83;;
5077;SDS011;2557;51.390;7.494;2023-02-11T13:44:00;86.47;;;40.50;;
5077;SDS011;2557;51.390;7.494;2023-02-11T13:46:28;102.67;;;45.03;;
5077;SDS011;2557;51.390;7.494;2023-02-11T13:48:54;107.13;;;45.67;;
5077;SDS011;2557;51.390;7.494;2023-02-11T13:51:34;108.80;;;43.07;;
5077;SDS011;2557;51.390;7.494;2023-02-11T13:54:01;95.37;;;39.40;;
5077;SDS011;2557;51.390;7.494;2023-02-11T13:56:38;94.07;;;43.13;;
5077;SDS011;2557;51.390;7.494;2023-02-11T13:59:50;98.23;;;42.60;;
5077;SDS011;2557;51.390;7.494;2023-02-11T14:02:17;100.47;;;46.97;;
5077;SDS011;2557;51.390;7.494;2023-02-11T14:10:52;98.07;;;45.80;;
5077;SDS011;2557;51.390;7.494;2023-02-11T14:18:35;109.23;;;44.07;;
5077;SDS011;2557;51.390;7.494;2023-02-11T14:21:12;102.77;;;43.67;;
5077;SDS011;2557;51.390;7.494;2023-02-11T14:23:39;115.10;;;45.13;;
5077;SDS011;2557;51.390;7.494;2023-02-11T14:26:11;102.20;;;45.77;;
5077;SDS011;2557;51.390;7.494;2023-02-11T14:28:46;100.27;;;43.57;;
5077;SDS011;2557;51.390;7.494;2023-02-11T14:31:17;104.47;;;43.80;;
5077;SDS011;2557;51.390;7.494;2023-02-11T14:36:37;115.13;;;44.10;;
5077;SDS011;2557;51.390;7.494;2023-02-11T14:39:16;102.73;;;41.90;;
5077;SDS011;2557;51.390;7.494;2023-02-11T14:41:47;118.13;;;44.53;;
5077;SDS011;2557;51.390;7.494;2023-02-11T14:44:17;124.20;;;45.80;;
5077;SDS011;2557;51.390;7.494;2023-02-11T14:46:44;105.50;;;43.90;;
5077;SDS011;2557;51.390;7.494;2023-02-11T14:49:13;106.30;;;42.73;;
5077;SDS011;2557;51.390;7.494;2023-02-11T14:51:41;114.83;;;46.33;;
5077;SDS011;2557;51.390;7.494;2023-02-11T14:54:10;102.87;;;43.00;;
5077;SDS011;2557;51.390;7.494;2023-02-11T14:56:39;112.40;;;45.50;;
5077;SDS011;2557;51.390;7.494;2023-02-11T14:59:16;110.20;;;46.40;;
5077;SDS011;2557;51.390;7.494;2023-02-11T15:01:43;107.50;;;44.77;;
5077;SDS011;2557;51.390;7.494;2023-02-11T15:04:27;101.37;;;46.67;;
5077;SDS011;2557;51.390;7.494;2023-02-11T15:06:53;125.93;;;48.80;;
5077;SDS011;2557;51.390;7.494;2023-02-11T15:09:21;106.53;;;44.40;;
5077;SDS011;2557;51.390;7.494;2023-02-11T15:11:50;106.33;;;45.43;;
5077;SDS011;2557;51.390;7.494;2023-02-11T15:14:24;108.20;;;45.40;;
5077;SDS011;2557;51.390;7.494;2023-02-11T15:16:51;103.93;;;46.00;;
5077;SDS011;2557;51.390;7.494;2023-02-11T15:21:50;117.80;;;45.47;;
5077;SDS011;2557;51.390;7.494;2023-02-11T15:26:56;99.30;;;43.60;;
5077;SDS011;2557;51.390;7.494;2023-02-11T15:29:23;107.50;;;46.97;;
5077;SDS011;2557;51.390;7.494;2023-02-11T15:32:10;103.57;;;45.67;;
5077;SDS011;2557;51.390;7.494;2023-02-11T15:34:37;95.63;;;43.93;;
5077;SDS011;2557;51.390;7.494;2023-02-11T15:37:04;123.53;;;47.33;;
5077;SDS011;2557;51.390;7.494;2023-02-11T15:39:37;125.67;;;46.87;;
5077;SDS011;2557;51.390;7.494;2023-02-11T15:42:18;105.90;;;45.33;;
5077;SDS011;2557;51.390;7.494;2023-02-11T15:44:44;105.37;;;44.53;;
5077;SDS011;2557;51.390;7.494;2023-02-11T15:47:10;96.27;;;44.97;;
5077;SDS011;2557;51.390;7.494;2023-02-11T15:49:37;109.30;;;46.20;;
5077;SDS011;2557;51.390;7.494;2023-02-11T15:52:03;120.87;;;46.00;;
5077;SDS011;2557;51.390;7.494;2023-02-11T15:54:32;100.57;;;45.40;;
5077;SDS011;2557;51.390;7.494;2023-02-11T15:57:00;97.93;;;43.77;;
5077;SDS011;2557;51.390;7.494;2023-02-11T16:01:54;111.67;;;44.40;;
5077;SDS011;2557;51.390;7.494;2023-02-11T16:04:23;109.90;;;44.87;;
5077;SDS011;2557;51.390;7.494;2023-02-11T16:06:49;97.17;;;42.43;;
5077;SDS011;2557;51.390;7.494;2023-02-11T16:14:21;79.73;;;38.90;;
5077;SDS011;2557;51.390;7.494;2023-02-11T16:16:49;101.13;;;40.83;;
5077;SDS011;2557;51.390;7.494;2023-02-11T16:19:17;84.97;;;38.27;;
5077;SDS011;2557;51.390;7.494;2023-02-11T16:21:44;79.30;;;40.00;;
5077;SDS011;2557;51.390;7.494;2023-02-11T16:24:16;79.60;;;36.77;;
5077;SDS011;2557;51.390;7.494;2023-02-11T16:26:45;88.80;;;37.40;;
5077;SDS011;2557;51.390;7.494;2023-02-11T16:29:13;83.97;;;40.67;;
5077;SDS011;2557;51.390;7.494;2023-02-11T16:31:41;84.27;;;39.10;;
5077;SDS011;2557;51.390;7.494;2023-02-11T16:34:17;82.57;;;39.30;;
5077;SDS011;2557;51.390;7.494;2023-02-11T16:36:43;81.67;;;38.30;;
5077;SDS011;2557;51.390;7.494;2023-02-11T16:39:10;85.77;;;38.90;;
5077;SDS011;2557;51.390;7.494;2023-02-11T16:41:36;87.93;;;38.40;;